Time;durP1;ratioP1;P1;durP2;ratioP2;P2;SDS_P1;SDS_P2;PMS_P1;PMS_P2;Temp;Humidity;BMP_temperature;BMP_pressure;BME280_temperature;BME280_humidity;BME280_pressure;Samples;Min_cycle;Max_cycle;Signal;HPM_P1;HPM_P2
2022/07/17 00:01:06;;;;;;;2.20;1.87;;;15.90;99.90;;;;;;5030124;28;20267;-39
2022/07/17 00:03:31;;;;;;;5.93;2.60;;;15.80;99.90;;;;;;5030578;28;21117;-39
2022/07/17 00:05:57;;;;;;;4.23;2.10;;;15.90;99.90;;;;;;5043492;28;20991;-39
2022/07/17 00:08:23;;;;;;;3.00;1.83;;;15.90;99.90;;;;;;5047207;28;20318;-39
2022/07/17 00:10:49;;;;;;;2.53;1.50;;;15.90;99.90;;;;;;5035080;28;20192;-40
2022/07/17 00:13:14;;;;;;;4.10;1.90;;;15.90;99.90;;;;;;5045719;28;20477;-39
2022/07/17 00:15:40;;;;;;;4.40;1.93;;;15.90;99.90;;;;;;5032220;28;20189;-39
2022/07/17 00:18:07;;;;;;;2.57;1.70;;;15.90;99.90;;;;;;5028955;28;20553;-38
2022/07/17 00:20:33;;;;;;;4.73;1.97;;;15.90;99.90;;;;;;5030043;28;20295;-38
2022/07/17 00:22:59;;;;;;;7.33;1.70;;;15.90;99.90;;;;;;5030058;28;20437;-39
2022/07/17 00:25:25;;;;;;;5.40;1.60;;;15.90;99.90;;;;;;5029995;28;20430;-39
2022/07/17 00:27:51;;;;;;;2.87;1.70;;;15.90;99.90;;;;;;5029390;28;20705;-38
2022/07/17 00:30:18;;;;;;;3.13;1.60;;;15.80;99.90;;;;;;5028581;28;20452;-39
2022/07/17 00:32:44;;;;;;;3.80;2.13;;;15.70;99.90;;;;;;5030028;28;20799;-39
2022/07/17 00:35:10;;;;;;;2.20;2.00;;;15.70;99.90;;;;;;5028713;28;20439;-38
2022/07/17 00:37:41;;;;;;;2.90;2.30;;;15.70;99.90;;;;;;5029536;28;20761;-38
2022/07/17 00:40:09;;;;;;;3.53;2.43;;;15.60;99.90;;;;;;5029933;28;20515;-39
2022/07/17 00:42:35;;;;;;;4.37;2.80;;;15.60;99.90;;;;;;5032848;28;20547;-39
2022/07/17 00:45:01;;;;;;;3.23;2.80;;;15.50;99.90;;;;;;5046371;28;20417;-39
2022/07/17 00:47:26;;;;;;;3.27;2.73;;;15.50;99.90;;;;;;5038837;28;20910;-38
2022/07/17 00:49:52;;;;;;;6.43;3.40;;;15.40;99.90;;;;;;5029792;28;20252;-38
2022/07/17 00:52:18;;;;;;;3.80;2.73;;;15.30;99.90;;;;;;5032915;28;20205;-39
2022/07/17 00:54:45;;;;;;;3.33;2.90;;;15.30;99.90;;;;;;5033897;28;20186;-39
2022/07/17 00:57:13;;;;;;;4.73;2.57;;;15.30;99.90;;;;;;5033316;28;20487;-39
2022/07/17 00:59:40;;;;;;;4.83;2.60;;;15.30;99.90;;;;;;5033755;28;20472;-39
2022/07/17 01:02:07;;;;;;;2.50;2.23;;;15.30;99.90;;;;;;5034037;28;20449;-39
2022/07/17 01:04:37;;;;;;;3.50;2.60;;;15.20;99.90;;;;;;5033822;28;20421;-39
2022/07/17 01:07:05;;;;;;;3.20;2.20;;;15.10;99.90;;;;;;5033113;28;20848;-39
2022/07/17 01:09:32;;;;;;;3.73;2.50;;;15.10;99.90;;;;;;5033661;28;20803;-39
2022/07/17 01:11:58;;;;;;;3.90;2.20;;;15.10;99.90;;;;;;5033429;28;20479;-38
2022/07/17 01:14:25;;;;;;;2.73;2.30;;;15.00;99.90;;;;;;5049729;28;20931;-39
2022/07/17 01:16:53;;;;;;;3.47;2.30;;;15.00;99.90;;;;;;5040723;28;20708;-41
2022/07/17 01:19:19;;;;;;;3.30;2.43;;;14.90;99.90;;;;;;5032498;28;20856;-38
2022/07/17 01:21:48;;;;;;;5.40;2.77;;;14.90;99.90;;;;;;5033650;28;20483;-39
2022/07/17 01:24:14;;;;;;;4.20;2.50;;;14.90;99.90;;;;;;5033097;28;20500;-38
2022/07/17 01:26:49;;;;;;;6.60;2.83;;;14.80;99.90;;;;;;5032918;28;20491;-38
2022/07/17 01:29:16;;;;;;;4.23;2.43;;;14.80;99.90;;;;;;5040855;28;20499;-39
2022/07/17 01:31:42;;;;;;;3.53;2.47;;;14.70;99.90;;;;;;5053219;28;20424;-39
2022/07/17 01:34:10;;;;;;;4.43;2.50;;;14.70;99.90;;;;;;5053210;28;20431;-39
2022/07/17 01:36:36;;;;;;;5.73;2.97;;;14.70;99.90;;;;;;5051379;28;20539;-38
2022/07/17 01:39:03;;;;;;;2.60;2.40;;;14.70;99.90;;;;;;5052662;28;20432;-38
2022/07/17 01:41:29;;;;;;;3.87;2.43;;;14.70;99.90;;;;;;5053058;28;20420;-40
2022/07/17 01:43:55;;;;;;;3.10;2.80;;;14.60;99.90;;;;;;5053154;28;20501;-39
2022/07/17 01:46:20;;;;;;;5.20;2.43;;;14.60;99.90;;;;;;5050515;28;20536;-39
2022/07/17 01:48:46;;;;;;;5.87;2.63;;;14.60;99.90;;;;;;5032318;28;20428;-39
2022/07/17 01:51:12;;;;;;;5.73;2.80;;;14.50;99.90;;;;;;5041017;28;20452;-39
2022/07/17 01:53:38;;;;;;;2.60;2.20;;;14.50;99.90;;;;;;5044545;28;20669;-38
2022/07/17 01:56:04;;;;;;;5.03;2.30;;;14.40;99.90;;;;;;5032656;28;20696;-39
2022/07/17 01:58:29;;;;;;;2.83;2.47;;;14.30;99.90;;;;;;5037089;28;20203;-40
2022/07/17 02:00:55;;;;;;;4.10;2.40;;;14.30;99.90;;;;;;5050664;28;20513;-39
2022/07/17 02:03:21;;;;;;;4.87;2.60;;;14.40;99.90;;;;;;5032785;28;20182;-39
2022/07/17 02:05:48;;;;;;;3.70;2.73;;;14.40;99.90;;;;;;5032542;28;20234;-41
2022/07/17 02:08:13;;;;;;;3.63;2.67;;;14.40;99.90;;;;;;5031975;28;20431;-39
2022/07/17 02:10:39;;;;;;;3.37;2.63;;;14.40;99.90;;;;;;5032609;28;20783;-38
2022/07/17 02:13:05;;;;;;;3.27;2.50;;;14.40;99.90;;;;;;5047023;28;20674;-40
2022/07/17 02:15:31;;;;;;;4.20;2.83;;;14.50;99.90;;;;;;5044452;28;20191;-39
2022/07/17 02:17:57;;;;;;;2.50;2.13;;;14.60;99.90;;;;;;5031146;28;20221;-40
2022/07/17 02:20:24;;;;;;;3.87;2.50;;;14.70;99.90;;;;;;5031989;28;20505;-39
2022/07/17 02:22:50;;;;;;;2.83;2.23;;;14.70;99.90;;;;;;5043283;28;20421;-38
2022/07/17 02:25:16;;;;;;;3.40;3.00;;;14.80;99.90;;;;;;5038335;28;20460;-39
2022/07/17 02:27:42;;;;;;;6.60;3.13;;;14.70;99.90;;;;;;5031718;28;20488;-39
2022/07/17 02:30:15;;;;;;;3.40;2.60;;;14.60;99.90;;;;;;5032266;28;20190;-39
2022/07/17 02:32:41;;;;;;;3.40;2.67;;;14.70;99.90;;;;;;5032169;28;20592;-38
2022/07/17 02:35:08;;;;;;;3.93;2.90;;;14.60;99.90;;;;;;5041246;28;20428;-38
2022/07/17 02:37:35;;;;;;;4.80;2.50;;;14.50;99.90;;;;;;5045942;28;20916;-39
2022/07/17 02:40:00;;;;;;;4.10;2.40;;;14.40;99.90;;;;;;5050168;28;20466;-39
2022/07/17 02:42:28;;;;;;;2.20;2.00;;;14.30;99.90;;;;;;5032094;28;20417;-39
2022/07/17 02:44:55;;;;;;;5.63;2.83;;;14.20;99.90;;;;;;5034221;28;20183;-39
2022/07/17 02:47:31;;;;;;;3.03;2.20;;;14.10;99.90;;;;;;5041556;28;20421;-38
2022/07/17 02:49:58;;;;;;;2.93;2.50;;;14.00;99.90;;;;;;5031547;28;20424;-41
2022/07/17 02:52:24;;;;;;;4.40;2.90;;;13.90;99.90;;;;;;5031749;28;20433;-38
2022/07/17 02:54:50;;;;;;;4.37;2.63;;;13.90;99.90;;;;;;5031858;28;21120;-39
2022/07/17 02:57:16;;;;;;;3.20;2.80;;;13.80;99.90;;;;;;5031464;28;20560;-39
2022/07/17 02:59:42;;;;;;;2.80;2.50;;;13.80;99.90;;;;;;5044409;28;20551;-39
2022/07/17 03:02:08;;;;;;;6.93;2.63;;;13.70;99.90;;;;;;5039816;28;20421;-38
2022/07/17 03:04:34;;;;;;;2.63;1.93;;;13.70;99.90;;;;;;5031427;28;20925;-38
2022/07/17 03:06:59;;;;;;;2.70;2.00;;;13.70;99.90;;;;;;5030861;28;20229;-38
2022/07/17 03:09:25;;;;;;;2.90;2.60;;;13.70;99.90;;;;;;5031522;28;20935;-38
2022/07/17 03:11:52;;;;;;;4.50;3.07;;;13.60;99.90;;;;;;5031611;28;20214;-39
2022/07/17 03:14:18;;;;;;;5.63;3.43;;;13.50;99.90;;;;;;5057042;28;20437;-39
2022/07/17 03:16:43;;;;;;;4.80;3.03;;;13.50;99.90;;;;;;5043253;28;20478;-39
2022/07/17 03:19:09;;;;;;;6.10;2.83;;;13.50;99.90;;;;;;5031389;28;20597;-39
2022/07/17 03:21:35;;;;;;;4.40;2.73;;;13.40;99.90;;;;;;5031251;28;20217;-39
2022/07/17 03:24:00;;;;;;;3.83;2.50;;;13.40;99.90;;;;;;5031072;28;20206;-38
2022/07/17 03:26:26;;;;;;;2.70;2.10;;;13.40;99.90;;;;;;5031255;28;20193;-39
2022/07/17 03:28:52;;;;;;;3.27;2.53;;;13.40;99.90;;;;;;5030459;28;20266;-39
2022/07/17 03:31:18;;;;;;;5.37;2.40;;;13.40;99.90;;;;;;5030964;28;20721;-39
2022/07/17 03:33:43;;;;;;;4.00;3.20;;;13.40;99.90;;;;;;5030817;28;20208;-39
2022/07/17 03:36:09;;;;;;;4.57;2.77;;;13.30;99.90;;;;;;5031160;28;20433;-39
2022/07/17 03:38:35;;;;;;;5.40;2.60;;;13.30;99.90;;;;;;5030390;28;20829;-39
2022/07/17 03:41:00;;;;;;;3.93;2.47;;;13.20;99.90;;;;;;5030849;28;20237;-38
2022/07/17 03:43:26;;;;;;;2.93;2.30;;;13.20;99.90;;;;;;5042168;28;20194;-39
2022/07/17 03:45:52;;;;;;;3.10;2.50;;;13.20;99.90;;;;;;5049684;28;20600;-39
2022/07/17 03:48:18;;;;;;;10.60;2.60;;;13.10;99.90;;;;;;5032342;28;20440;-39
2022/07/17 03:50:44;;;;;;;3.40;2.27;;;13.10;99.90;;;;;;5030739;28;20182;-39
2022/07/17 03:53:09;;;;;;;2.73;1.93;;;13.10;99.90;;;;;;5030719;28;20220;-39
2022/07/17 03:55:35;;;;;;;2.50;2.30;;;13.10;99.90;;;;;;5030694;28;20190;-38
2022/07/17 03:58:01;;;;;;;4.27;2.87;;;13.10;99.90;;;;;;5029878;28;20433;-39
2022/07/17 04:00:27;;;;;;;7.00;3.83;;;13.20;99.90;;;;;;5030313;28;20210;-40
2022/07/17 04:02:53;;;;;;;3.20;2.70;;;13.20;99.90;;;;;;5030413;28;20198;-38
2022/07/17 04:05:19;;;;;;;4.07;2.77;;;13.10;99.90;;;;;;5030242;28;20217;-39
2022/07/17 04:07:45;;;;;;;3.50;2.90;;;13.10;99.90;;;;;;5029917;28;20193;-39
2022/07/17 04:10:12;;;;;;;2.97;2.00;;;13.10;99.90;;;;;;5031356;28;20216;-39
2022/07/17 04:12:38;;;;;;;3.80;2.70;;;13.10;99.90;;;;;;5043727;28;20432;-39
2022/07/17 04:15:05;;;;;;;3.30;2.60;;;13.10;99.90;;;;;;5039289;28;20490;-39
2022/07/17 04:17:31;;;;;;;3.13;2.43;;;13.10;99.90;;;;;;5029673;28;20788;-38
2022/07/17 04:19:57;;;;;;;3.00;2.60;;;13.10;99.90;;;;;;5027274;28;20461;-39
2022/07/17 04:22:23;;;;;;;2.67;2.47;;;13.10;99.90;;;;;;5030222;28;20433;-38
2022/07/17 04:24:49;;;;;;;2.83;2.43;;;13.10;99.90;;;;;;5029957;28;20443;-39
2022/07/17 04:27:15;;;;;;;8.43;2.80;;;13.10;99.90;;;;;;5027637;28;20783;-39
2022/07/17 04:29:41;;;;;;;3.53;2.30;;;13.10;99.90;;;;;;5029944;28;20433;-39
2022/07/17 04:32:07;;;;;;;4.67;2.97;;;13.20;99.90;;;;;;5036913;28;20532;-40
2022/07/17 04:34:33;;;;;;;3.80;2.97;;;13.30;99.90;;;;;;5038910;28;20226;-39
2022/07/17 04:37:00;;;;;;;2.97;2.77;;;13.30;99.90;;;;;;5029297;28;20201;-39
2022/07/17 04:39:26;;;;;;;3.60;2.63;;;13.40;99.90;;;;;;5029969;28;20991;-38
2022/07/17 04:41:51;;;;;;;4.57;3.07;;;13.40;99.90;;;;;;5029888;28;20468;-39
2022/07/17 04:44:17;;;;;;;3.60;2.80;;;13.40;99.90;;;;;;5029807;28;20718;-39
2022/07/17 04:46:43;;;;;;;4.07;2.53;;;13.40;99.90;;;;;;5041548;28;20209;-39
2022/07/17 04:49:09;;;;;;;5.77;3.10;;;13.40;99.90;;;;;;5030049;28;20508;-39
2022/07/17 04:51:35;;;;;;;3.20;2.50;;;13.40;99.90;;;;;;5029778;28;20187;-38
2022/07/17 04:54:00;;;;;;;7.43;3.00;;;13.50;99.90;;;;;;5030054;28;20679;-39
2022/07/17 04:56:26;;;;;;;3.13;2.70;;;13.60;99.90;;;;;;5029640;28;20186;-39
2022/07/17 04:58:52;;;;;;;3.60;2.90;;;13.60;99.90;;;;;;5042080;28;20185;-39
2022/07/17 05:01:18;;;;;;;4.03;3.27;;;13.70;99.90;;;;;;5045411;28;20226;-39
2022/07/17 05:03:44;;;;;;;4.40;2.80;;;13.80;99.90;;;;;;5029782;28;20417;-39
2022/07/17 05:06:10;;;;;;;2.80;2.60;;;13.90;99.90;;;;;;5041725;28;20961;-38
2022/07/17 05:08:36;;;;;;;3.20;2.90;;;14.00;99.90;;;;;;5038274;28;20187;-39
2022/07/17 05:11:01;;;;;;;2.77;2.57;;;14.10;99.90;;;;;;5040521;28;20428;-40
2022/07/17 05:13:27;;;;;;;3.60;2.73;;;14.20;99.90;;;;;;5057837;28;20265;-39
2022/07/17 05:15:53;;;;;;;5.27;2.87;;;14.30;99.90;;;;;;5041710;28;20194;-39
2022/07/17 05:18:18;;;;;;;5.43;3.30;;;14.30;99.90;;;;;;5043026;28;20197;-39
2022/07/17 05:20:44;;;;;;;4.77;2.73;;;14.40;99.90;;;;;;5032372;28;20248;-39
2022/07/17 05:23:10;;;;;;;4.10;2.70;;;14.50;99.90;;;;;;5029609;28;20210;-39
2022/07/17 05:25:36;;;;;;;3.70;2.90;;;14.50;99.90;;;;;;5029594;28;20194;-39
2022/07/17 05:28:02;;;;;;;5.80;2.73;;;14.60;99.90;;;;;;5028801;28;20179;-39
2022/07/17 05:30:28;;;;;;;3.47;3.03;;;14.80;99.90;;;;;;5029613;28;20202;-38
2022/07/17 05:32:54;;;;;;;4.57;3.30;;;14.90;99.90;;;;;;5029606;28;20483;-39
2022/07/17 05:35:20;;;;;;;5.47;2.80;;;15.00;99.90;;;;;;5029472;28;20440;-39
2022/07/17 05:37:46;;;;;;;4.70;2.27;;;15.10;99.90;;;;;;5030782;28;20424;-39
2022/07/17 05:40:12;;;;;;;3.60;2.50;;;15.20;99.90;;;;;;5033187;28;20202;-39
2022/07/17 05:42:38;;;;;;;9.00;2.97;;;15.20;99.90;;;;;;5032820;28;20186;-40
2022/07/17 05:45:05;;;;;;;4.00;2.37;;;15.30;99.90;;;;;;5036612;28;20774;-39
2022/07/17 05:47:30;;;;;;;4.20;2.70;;;15.40;99.90;;;;;;5045106;28;20198;-40
2022/07/17 05:49:57;;;;;;;4.47;2.47;;;15.50;99.90;;;;;;5045168;28;20425;-41
2022/07/17 05:52:23;;;;;;;7.10;3.30;;;15.60;99.90;;;;;;5049298;28;20220;-39
2022/07/17 05:54:48;;;;;;;3.70;2.63;;;15.70;99.90;;;;;;5035931;28;20417;-40
2022/07/17 05:57:14;;;;;;;8.10;3.73;;;15.80;99.90;;;;;;5049643;28;20251;-39
2022/07/17 05:59:40;;;;;;;3.87;3.17;;;16.00;99.90;;;;;;5040353;28;20213;-39
2022/07/17 06:02:06;;;;;;;3.67;2.33;;;16.10;99.90;;;;;;5032902;28;20205;-39
2022/07/17 06:04:32;;;;;;;5.53;3.07;;;16.30;99.90;;;;;;5032595;28;20193;-39
2022/07/17 06:06:58;;;;;;;3.47;2.77;;;16.40;99.90;;;;;;5032074;28;20811;-39
2022/07/17 06:09:24;;;;;;;3.70;2.90;;;16.60;99.90;;;;;;5037675;28;20429;-39
2022/07/17 06:11:49;;;;;;;7.33;3.20;;;16.70;99.90;;;;;;5046403;28;20641;-39
2022/07/17 06:14:15;;;;;;;5.20;2.70;;;16.70;99.90;;;;;;5046740;28;20190;-39
2022/07/17 06:16:41;;;;;;;3.03;2.70;;;16.80;99.90;;;;;;5032148;28;20840;-39
2022/07/17 06:19:07;;;;;;;6.03;2.60;;;17.00;99.90;;;;;;5030865;28;20187;-39
2022/07/17 06:21:32;;;;;;;6.30;2.80;;;17.10;99.90;;;;;;5032535;28;20197;-39
2022/07/17 06:23:58;;;;;;;5.07;2.80;;;17.20;99.90;;;;;;5033756;28;20248;-39
2022/07/17 06:26:24;;;;;;;6.30;2.83;;;17.30;99.90;;;;;;5042097;28;20574;-39
2022/07/17 06:28:50;;;;;;;4.23;2.40;;;17.40;99.90;;;;;;5051498;28;20268;-39
2022/07/17 06:31:16;;;;;;;3.00;2.40;;;17.50;99.90;;;;;;5042897;28;20197;-43
2022/07/17 06:33:42;;;;;;;2.77;1.80;;;17.60;99.90;;;;;;5044213;28;20488;-39
2022/07/17 06:36:08;;;;;;;3.80;2.13;;;17.80;99.90;;;;;;5032072;28;20515;-39
2022/07/17 06:38:33;;;;;;;3.23;2.00;;;17.90;99.90;;;;;;5031561;28;20661;-39
2022/07/17 06:41:00;;;;;;;7.00;2.37;;;18.10;99.90;;;;;;5043342;28;20221;-39
2022/07/17 06:43:26;;;;;;;4.13;1.80;;;18.20;99.90;;;;;;5043481;28;20210;-38
2022/07/17 06:45:54;;;;;;;2.00;1.60;;;18.30;99.90;;;;;;5050721;28;20797;-39
2022/07/17 06:48:21;;;;;;;2.90;1.90;;;18.50;99.90;;;;;;5045842;28;20265;-41
2022/07/17 06:50:46;;;;;;;2.40;1.87;;;18.60;99.90;;;;;;5033041;28;20445;-39
2022/07/17 06:53:13;;;;;;;2.10;1.70;;;18.70;99.90;;;;;;5050473;28;20946;-37
2022/07/17 06:55:39;;;;;;;3.70;1.63;;;18.80;99.80;;;;;;5050933;28;20201;-39
2022/07/17 06:58:04;;;;;;;2.30;1.90;;;18.80;99.40;;;;;;5052497;28;20444;-38
2022/07/17 07:00:30;;;;;;;3.33;1.33;;;18.90;99.40;;;;;;5053731;28;20234;-38
2022/07/17 07:02:56;;;;;;;5.93;1.97;;;19.00;99.30;;;;;;5039220;28;20194;-39
2022/07/17 07:05:22;;;;;;;1.77;1.43;;;19.10;99.30;;;;;;5053763;28;20358;-38
2022/07/17 07:07:48;;;;;;;3.37;2.50;;;19.10;99.30;;;;;;5037755;28;20384;-38
2022/07/17 07:10:14;;;;;;;3.30;2.10;;;19.00;99.90;;;;;;5051306;28;20439;-38
2022/07/17 07:12:39;;;;;;;3.13;2.10;;;19.10;99.90;;;;;;5052725;28;20208;-39
2022/07/17 07:15:06;;;;;;;4.40;2.27;;;19.20;99.90;;;;;;5050701;28;20560;-38
2022/07/17 07:17:34;;;;;;;2.67;2.10;;;19.30;99.90;;;;;;5048671;28;20217;-39
2022/07/17 07:20:03;;;;;;;3.60;1.87;;;19.40;99.90;;;;;;5050970;28;20474;-38
2022/07/17 07:22:29;;;;;;;3.03;2.20;;;19.60;99.90;;;;;;5044156;28;21190;-40
2022/07/17 07:24:54;;;;;;;2.43;1.90;;;19.80;99.90;;;;;;5047635;28;20465;-39
2022/07/17 07:27:20;;;;;;;2.87;1.77;;;19.90;99.90;;;;;;5044906;28;20194;-38
2022/07/17 07:29:46;;;;;;;2.33;2.10;;;20.10;99.00;;;;;;5046315;28;20296;-38
2022/07/17 07:32:12;;;;;;;4.37;1.70;;;20.20;98.80;;;;;;5046982;28;20206;-39
2022/07/17 07:34:37;;;;;;;2.27;2.03;;;20.30;98.90;;;;;;5046727;28;20217;-40
2022/07/17 07:37:03;;;;;;;3.10;1.90;;;20.30;98.30;;;;;;5039412;28;20740;-40
2022/07/17 07:39:29;;;;;;;3.50;1.77;;;20.40;98.40;;;;;;5050912;28;20742;-39
2022/07/17 07:41:54;;;;;;;3.30;1.70;;;20.40;98.40;;;;;;5044675;28;20209;-40
2022/07/17 07:44:20;;;;;;;4.70;1.87;;;20.40;98.60;;;;;;5056367;28;20212;-40
2022/07/17 07:46:46;;;;;;;1.73;1.60;;;20.50;98.80;;;;;;5039368;28;20277;-39
2022/07/17 07:49:12;;;;;;;4.20;1.90;;;20.60;99.00;;;;;;5048312;28;20214;-38
2022/07/17 07:51:37;;;;;;;3.73;2.00;;;20.70;98.10;;;;;;5057026;28;20204;-40
2022/07/17 07:54:03;;;;;;;1.53;1.37;;;20.70;97.50;;;;;;5046711;28;20225;-42
2022/07/17 07:56:29;;;;;;;2.73;1.47;;;20.60;97.00;;;;;;5057642;28;20208;-41
2022/07/17 07:58:55;;;;;;;2.77;1.50;;;20.60;96.40;;;;;;5049284;28;20230;-39
2022/07/17 08:01:20;;;;;;;3.60;1.67;;;20.60;96.50;;;;;;5055766;28;20224;-40
2022/07/17 08:03:46;;;;;;;4.93;1.83;;;20.60;96.90;;;;;;5048925;28;20219;-41
2022/07/17 08:06:14;;;;;;;3.67;1.50;;;20.60;96.80;;;;;;5056338;28;20295;-40
2022/07/17 08:08:40;;;;;;;2.87;1.80;;;20.60;97.20;;;;;;5050208;28;20340;-42
2022/07/17 08:11:06;;;;;;;2.07;1.20;;;20.60;96.90;;;;;;5042567;28;20891;-40
2022/07/17 08:13:32;;;;;;;4.10;1.23;;;20.60;96.00;;;;;;5042334;28;20799;-39
2022/07/17 08:15:58;;;;;;;2.93;1.73;;;20.50;96.40;;;;;;5045569;28;20455;-38
2022/07/17 08:18:25;;;;;;;4.70;1.90;;;20.50;96.80;;;;;;5038398;28;20739;-39
2022/07/17 08:20:53;;;;;;;2.27;1.60;;;20.50;97.20;;;;;;5040419;28;20494;-39
2022/07/17 08:23:19;;;;;;;3.43;1.73;;;20.60;97.10;;;;;;5037980;28;20417;-39
2022/07/17 08:25:46;;;;;;;5.03;1.80;;;20.60;97.30;;;;;;5038331;28;20409;-40
2022/07/17 08:28:12;;;;;;;4.83;1.70;;;20.50;96.90;;;;;;5038863;28;20423;-39
2022/07/17 08:30:37;;;;;;;3.30;1.63;;;20.50;97.00;;;;;;5039799;28;20417;-40
2022/07/17 08:33:06;;;;;;;3.60;1.47;;;20.50;97.10;;;;;;5040212;28;20239;-39
2022/07/17 08:35:32;;;;;;;2.80;1.70;;;20.50;97.10;;;;;;5029797;28;20240;-42
2022/07/17 08:38:00;;;;;;;2.53;1.43;;;20.60;97.30;;;;;;5029361;28;20429;-39
2022/07/17 08:40:30;;;;;;;2.67;1.50;;;20.70;97.00;;;;;;5036555;28;20473;-41
2022/07/17 08:42:58;;;;;;;4.90;1.93;;;20.70;97.00;;;;;;5037399;28;20483;-39
2022/07/17 08:45:24;;;;;;;2.37;1.60;;;20.90;96.70;;;;;;5038068;28;20445;-39
2022/07/17 08:47:51;;;;;;;2.10;1.67;;;20.90;96.10;;;;;;5041886;28;20409;-40
2022/07/17 08:50:24;;;;;;;2.40;1.73;;;20.90;96.30;;;;;;5038787;28;20424;-39
2022/07/17 08:52:50;;;;;;;3.90;1.83;;;20.90;96.30;;;;;;5038770;28;20470;-39
2022/07/17 08:55:16;;;;;;;3.20;1.30;;;20.90;96.00;;;;;;5035108;28;20548;-40
2022/07/17 08:57:44;;;;;;;2.80;1.80;;;20.90;96.10;;;;;;5043599;28;20421;-39
2022/07/17 09:00:12;;;;;;;3.13;1.60;;;21.00;95.90;;;;;;5029022;28;20807;-39
2022/07/17 09:02:39;;;;;;;2.33;1.20;;;21.10;95.50;;;;;;5029600;28;20417;-40
2022/07/17 09:05:07;;;;;;;2.77;1.70;;;21.20;95.60;;;;;;5029562;28;20445;-39
2022/07/17 09:07:33;;;;;;;3.77;1.70;;;21.30;95.00;;;;;;5029046;28;20487;-41
2022/07/17 09:09:58;;;;;;;2.70;1.43;;;21.40;95.20;;;;;;5029617;28;20421;-44
2022/07/17 09:12:26;;;;;;;2.33;1.53;;;21.40;94.50;;;;;;5034324;28;21010;-39
2022/07/17 09:14:52;;;;;;;3.30;1.97;;;21.50;94.80;;;;;;5042010;28;20189;-40
2022/07/17 09:17:18;;;;;;;3.70;1.60;;;21.60;95.10;;;;;;5052905;28;20549;-43
2022/07/17 09:19:47;;;;;;;3.83;1.60;;;21.80;94.80;;;;;;5051949;28;20547;-41
2022/07/17 09:22:18;;;;;;;3.93;1.87;;;22.00;93.50;;;;;;5053308;28;20204;-40
2022/07/17 09:24:46;;;;;;;3.20;2.13;;;22.10;93.60;;;;;;5034712;28;20432;-39
2022/07/17 09:27:14;;;;;;;4.40;1.60;;;22.20;93.60;;;;;;5038501;28;20516;-40
2022/07/17 09:30:05;;;;;;;4.13;1.80;;;22.30;92.80;;;;;;5032767;28;20966;-40
2022/07/17 09:32:34;;;;;;;4.17;1.97;;;22.30;92.80;;;;;;5031537;28;20523;-41
2022/07/17 09:35:02;;;;;;;3.43;1.80;;;22.40;92.50;;;;;;5032761;28;20429;-39
2022/07/17 09:37:29;;;;;;;3.30;1.70;;;22.50;92.60;;;;;;5032421;28;20464;-44
2022/07/17 09:39:56;;;;;;;3.50;2.33;;;22.50;92.40;;;;;;5033273;28;20459;-42
2022/07/17 09:42:31;;;;;;;4.10;1.60;;;22.70;93.50;;;;;;5032918;28;20417;-43
2022/07/17 09:45:01;;;;;;;2.93;1.20;;;22.80;93.70;;;;;;5034398;28;20428;-40
2022/07/17 09:47:28;;;;;;;2.87;1.57;;;22.90;93.40;;;;;;5034540;28;20421;-39
2022/07/17 09:49:56;;;;;;;5.30;1.67;;;23.00;91.60;;;;;;5033154;28;20432;-44
2022/07/17 09:52:27;;;;;;;2.40;1.60;;;23.10;91.80;;;;;;5032924;28;20495;-42
2022/07/17 09:54:54;;;;;;;4.07;1.47;;;23.20;92.60;;;;;;5032768;28;20428;-43
2022/07/17 09:57:26;;;;;;;4.10;1.60;;;23.30;92.60;;;;;;5032312;28;20828;-40
2022/07/17 09:59:55;;;;;;;3.97;1.70;;;23.40;90.70;;;;;;5032860;28;20453;-39
2022/07/17 10:02:21;;;;;;;4.83;1.60;;;23.30;91.40;;;;;;5039553;28;20848;-40
2022/07/17 10:04:48;;;;;;;4.07;1.60;;;23.40;91.70;;;;;;5052536;28;20427;-39
2022/07/17 10:07:15;;;;;;;3.90;1.87;;;23.50;91.60;;;;;;5051680;28;20424;-40
2022/07/17 10:09:40;;;;;;;2.90;1.93;;;23.60;91.00;;;;;;5052563;28;20923;-39
2022/07/17 10:12:07;;;;;;;2.63;1.60;;;23.60;91.90;;;;;;5051094;28;20462;-42
2022/07/17 10:14:35;;;;;;;3.47;1.50;;;23.50;91.30;;;;;;5042958;28;20192;-39
2022/07/17 10:17:27;;;;;;;3.00;1.60;;;23.60;91.40;;;;;;5051745;28;20419;-43
2022/07/17 10:19:55;;;;;;;2.70;1.37;;;23.70;90.80;;;;;;5050342;28;20479;-40
2022/07/17 10:22:22;;;;;;;4.27;1.67;;;23.80;90.00;;;;;;5052286;28;20937;-41
2022/07/17 10:24:56;;;;;;;2.60;1.73;;;23.80;90.40;;;;;;5050854;28;20420;-39
2022/07/17 10:27:28;;;;;;;4.20;1.37;;;23.90;89.40;;;;;;5051631;28;20458;-40
2022/07/17 10:30:03;;;;;;;3.33;1.60;;;24.00;89.90;;;;;;5052286;28;20426;-41
2022/07/17 10:32:28;;;;;;;2.60;1.47;;;24.00;86.60;;;;;;5051860;28;20420;-39
2022/07/17 10:35:04;;;;;;;5.10;1.50;;;24.10;89.70;;;;;;5052173;28;20478;-41
2022/07/17 10:37:36;;;;;;;1.73;1.50;;;24.20;91.10;;;;;;5051318;28;20185;-40
2022/07/17 10:40:14;;;;;;;3.47;1.80;;;24.20;88.70;;;;;;5052103;28;20506;-40
2022/07/17 10:42:41;;;;;;;2.63;1.73;;;24.40;90.70;;;;;;5051710;28;20415;-39
2022/07/17 10:45:14;;;;;;;2.07;1.50;;;24.50;90.60;;;;;;5051931;28;20421;-45
2022/07/17 10:47:48;;;;;;;2.50;1.70;;;24.40;87.70;;;;;;5031304;28;20504;-42
2022/07/17 10:50:15;;;;;;;3.90;1.70;;;24.50;89.20;;;;;;5031910;28;20452;-40
2022/07/17 10:52:41;;;;;;;4.30;1.77;;;24.60;87.40;;;;;;5031967;28;20455;-41
2022/07/17 10:55:19;;;;;;;2.13;1.53;;;24.70;85.60;;;;;;5031487;28;20457;-39
2022/07/17 10:57:47;;;;;;;3.47;1.60;;;24.80;87.50;;;;;;5031240;28;20197;-39
2022/07/17 11:00:13;;;;;;;2.47;1.27;;;24.90;84.30;;;;;;5030326;28;20463;-40
2022/07/17 11:02:39;;;;;;;4.83;1.70;;;24.90;80.30;;;;;;5031626;28;20782;-41
2022/07/17 11:05:12;;;;;;;5.70;2.07;;;25.00;81.80;;;;;;5036808;28;20511;-39
2022/07/17 11:07:53;;;;;;;3.60;2.10;;;25.00;83.30;;;;;;5042175;28;20190;-39
2022/07/17 11:10:19;;;;;;;4.60;1.90;;;24.90;80.90;;;;;;5051485;28;20427;-40
2022/07/17 11:12:45;;;;;;;2.37;1.47;;;24.90;83.90;;;;;;5054792;28;20412;-40
2022/07/17 11:15:11;;;;;;;3.77;2.00;;;25.00;82.70;;;;;;5038814;28;20425;-39
2022/07/17 11:17:36;;;;;;;2.53;1.40;;;25.00;84.00;;;;;;5039973;28;20206;-43
2022/07/17 11:20:04;;;;;;;3.40;1.87;;;25.20;84.90;;;;;;5048222;28;20197;-39
2022/07/17 11:22:29;;;;;;;3.00;2.00;;;25.20;81.80;;;;;;5037460;28;20186;-40
2022/07/17 11:24:55;;;;;;;2.80;1.93;;;25.10;78.00;;;;;;5031207;28;20475;-40
2022/07/17 11:27:24;;;;;;;2.67;1.43;;;25.00;77.30;;;;;;5030715;28;20201;-40
2022/07/17 11:29:51;;;;;;;3.87;2.00;;;25.00;78.80;;;;;;5031243;28;20198;-40
2022/07/17 11:32:18;;;;;;;4.30;1.77;;;25.00;81.50;;;;;;5032171;28;20468;-41
2022/07/17 11:34:43;;;;;;;3.43;1.73;;;25.10;79.20;;;;;;5030466;28;20425;-40
2022/07/17 11:37:09;;;;;;;4.53;2.00;;;25.20;76.40;;;;;;5030525;28;20447;-40
2022/07/17 11:39:45;;;;;;;3.83;1.93;;;25.10;74.70;;;;;;5031045;28;20198;-42
2022/07/17 11:42:20;;;;;;;2.83;2.00;;;25.20;77.10;;;;;;5030952;28;20453;-39
2022/07/17 11:44:49;;;;;;;2.70;1.80;;;25.20;74.20;;;;;;5031832;28;20463;-39
2022/07/17 11:47:23;;;;;;;2.80;2.00;;;25.20;73.20;;;;;;5032926;28;20418;-40
2022/07/17 11:49:50;;;;;;;3.70;1.70;;;25.20;74.50;;;;;;5030823;28;20429;-41
2022/07/17 11:52:20;;;;;;;7.57;2.00;;;25.20;74.70;;;;;;5030639;28;20439;-42
2022/07/17 11:54:50;;;;;;;3.17;1.30;;;25.30;79.80;;;;;;5030769;28;20497;-40
2022/07/17 11:57:17;;;;;;;2.17;1.60;;;25.50;79.20;;;;;;5029910;28;20444;-40
2022/07/17 11:59:43;;;;;;;4.67;1.90;;;25.60;77.50;;;;;;5030463;28;20464;-39
2022/07/17 12:02:17;;;;;;;3.80;1.73;;;25.60;74.10;;;;;;5030463;28;20421;-39
2022/07/17 12:04:56;;;;;;;2.67;1.80;;;25.60;75.50;;;;;;5030615;28;20500;-40
2022/07/17 12:07:25;;;;;;;2.03;1.83;;;25.60;75.50;;;;;;5029946;28;20421;-40
2022/07/17 12:09:51;;;;;;;2.80;1.73;;;25.70;72.70;;;;;;5031132;28;20441;-40
2022/07/17 12:12:27;;;;;;;3.87;1.67;;;25.80;72.30;;;;;;5037228;28;20435;-40
2022/07/17 12:14:58;;;;;;;1.87;1.53;;;25.80;70.90;;;;;;5032731;28;20409;-40
2022/07/17 12:17:25;;;;;;;3.00;1.63;;;25.80;67.80;;;;;;5029713;28;20430;-40
2022/07/17 12:19:51;;;;;;;2.40;1.67;;;25.70;67.30;;;;;;5029417;28;20492;-42
2022/07/17 12:22:17;;;;;;;4.17;1.37;;;25.80;69.30;;;;;;5030151;28;20424;-43
2022/07/17 12:24:45;;;;;;;2.33;1.73;;;25.80;68.90;;;;;;5030108;28;20421;-41
2022/07/17 12:27:16;;;;;;;3.97;1.87;;;25.70;61.30;;;;;;5029526;28;20429;-41
2022/07/17 12:29:43;;;;;;;2.70;1.80;;;25.70;64.80;;;;;;5030321;28;20428;-40
2022/07/17 12:32:16;;;;;;;1.87;1.50;;;25.70;63.50;;;;;;5030145;28;20455;-40
2022/07/17 12:34:48;;;;;;;3.00;1.50;;;25.70;69.00;;;;;;5037444;28;20428;-41
2022/07/17 12:37:16;;;;;;;2.87;1.43;;;25.80;69.50;;;;;;5047765;28;20423;-40
2022/07/17 12:39:43;;;;;;;5.70;1.87;;;25.90;68.90;;;;;;5049966;28;20997;-41
2022/07/17 12:42:09;;;;;;;5.57;2.03;;;25.90;68.90;;;;;;5049842;28;20486;-40
2022/07/17 12:44:36;;;;;;;2.20;1.63;;;26.10;68.70;;;;;;5050019;28;20424;-40
2022/07/17 12:47:02;;;;;;;3.70;1.77;;;26.10;71.80;;;;;;5033508;28;20244;-40